WXM80 ListenWXM80 Stop

You find our weather info also at:

UK Metoffice

WeatherCloud

Weather Underground

Northeastern Weather Network

AWEKAS

Citizen Weather Observer Program (CWOP)

HAMweather, WeatherForYou, PWS Weather


Weather Underground History page Text

Daily Summary for January 22, 2016 Units:  English    Metric   Both
« Previous Day
Next Day »
Daily Weekly Monthly Yearly Custom
  High: Low: Average:
Temperature: 31.1 °F 21.1 °F 27 °F
Dew Point: 20.9 °F 9.6 °F 12.9 °F
Humidity: 69 % 47 % 55 %
Wind Speed: 10.7 mph 0.1 mph 5.1 mph
Wind Gust: 16.1 mph - -
Wind:- - SE
Pressure: 30.30 in 30.09 in -
Precipitation: 0.00 in    
Historical Graphs
 
 
Tabular Data for January 22, 2016
Time Temperature Dew Point Pressure Wind Wind Speed Wind Gust Humidity Rainfall Rate (Hourly)
00:01 26.8 °F 12.4 °F 30.22 in NNW 8.7 mph 12.0 mph 54 % 0.00 in
00:06 26.7 °F 12.3 °F 30.22 in NNW 4.8 mph 8.1 mph 54 % 0.00 in
00:12 26.7 °F 12.3 °F 30.22 in NNW 3.1 mph 10.4 mph 54 % 0.00 in
00:17 26.6 °F 12.6 °F 30.22 in NW 3.5 mph 8.0 mph 55 % 0.00 in
00:22 26.5 °F 11.7 °F 30.23 in North 5.9 mph 11.5 mph 53 % 0.00 in
00:27 26.5 °F 12.5 °F 30.22 in NNW 4.4 mph 9.2 mph 55 % 0.00 in
00:32 26.5 °F 12.5 °F 30.22 in North 4.5 mph 9.2 mph 55 % 0.00 in
00:37 26.3 °F 12.3 °F 30.22 in WNW 5.5 mph 12.7 mph 55 % 0.00 in
00:42 26.2 °F 11.8 °F 30.22 in NW 5.8 mph 8.1 mph 54 % 0.00 in
00:47 26.2 °F 12.6 °F 30.21 in North 6.4 mph 9.2 mph 56 % 0.00 in
01:03 25.9 °F 12.3 °F 30.21 in NNW 4.9 mph 10.4 mph 56 % 0.00 in
01:08 25.8 °F 12.2 °F 30.20 in North 5.2 mph 8.1 mph 56 % 0.00 in
01:18 25.6 °F 12.5 °F 30.20 in NNE 4.4 mph 8.1 mph 57 % 0.00 in
01:23 25.5 °F 12.4 °F 30.20 in North 5.8 mph 9.2 mph 57 % 0.00 in
01:28 25.4 °F 11.9 °F 30.22 in NNW 5.6 mph 9.2 mph 56 % 0.00 in
01:33 25.4 °F 12.7 °F 30.22 in NNE 4.8 mph 9.2 mph 58 % 0.00 in
01:38 25.3 °F 12.2 °F 30.22 in NE 8.4 mph 11.5 mph 57 % 0.00 in
01:43 25.2 °F 11.3 °F 30.22 in NW 6.6 mph 7.0 mph 55 % 0.00 in
01:48 25.1 °F 11.2 °F 30.22 in NNE 6.0 mph 8.1 mph 55 % 0.00 in
01:59 24.9 °F 10.2 °F 30.23 in NE 7.1 mph 16.1 mph 53 % 0.00 in
02:04 24.8 °F 10.1 °F 30.23 in NNE 9.5 mph 16.1 mph 53 % 0.00 in
02:09 24.8 °F 10.5 °F 30.23 in NNW 6.2 mph 10.4 mph 54 % 0.00 in
02:14 24.7 °F 10.8 °F 30.23 in NE 4.8 mph 8.1 mph 55 % 0.00 in
02:19 24.6 °F 11.1 °F 30.23 in NW 5.2 mph 9.2 mph 56 % 0.00 in
02:24 24.5 °F 10.2 °F 30.22 in NW 8.0 mph 8.1 mph 54 % 0.00 in
02:29 24.5 °F 10.2 °F 30.22 in NNE 7.9 mph 10.4 mph 54 % 0.00 in
02:34 24.3 °F 9.6 °F 30.22 in NNW 8.0 mph 13.8 mph 53 % 0.00 in
02:39 24.2 °F 9.9 °F 30.23 in NNW 5.2 mph 9.0 mph 54 % 0.00 in
02:45 24.2 °F 10.7 °F 30.23 in NNE 6.6 mph 10.0 mph 56 % 0.00 in
02:50 24.1 °F 10.6 °F 30.22 in North 3.2 mph 8.1 mph 56 % 0.00 in
02:55 24.0 °F 10.6 °F 30.22 in North 7.1 mph 13.8 mph 56 % 0.00 in
03:00 23.9 °F 10.5 °F 30.22 in North 4.3 mph 12.7 mph 56 % 0.00 in
03:05 23.9 °F 11.3 °F 30.22 in NNE 7.7 mph 10.4 mph 58 % 0.00 in
03:10 23.8 °F 10.8 °F 30.22 in North 5.7 mph 10.4 mph 57 % 0.00 in
03:15 23.7 °F 10.7 °F 30.22 in North 8.3 mph 12.0 mph 57 % 0.00 in
03:20 23.6 °F 10.2 °F 30.22 in NE 8.6 mph 14.0 mph 56 % 0.00 in
03:25 23.4 °F 9.6 °F 30.22 in North 10.1 mph 12.7 mph 55 % 0.00 in
03:36 23.3 °F 10.7 °F 30.21 in NNE 6.2 mph 11.5 mph 58 % 0.00 in
03:41 23.1 °F 10.5 °F 30.22 in NNE 6.2 mph 11.5 mph 58 % 0.00 in
03:46 23.1 °F 10.5 °F 30.22 in North 5.7 mph 10.4 mph 58 % 0.00 in
03:51 23.1 °F 10.9 °F 30.22 in NNW 3.7 mph 8.1 mph 59 % 0.00 in
03:56 23.0 °F 10.8 °F 30.22 in North 6.9 mph 9.2 mph 59 % 0.00 in
04:01 22.9 °F 11.1 °F 30.22 in NNW 6.8 mph 11.5 mph 60 % 0.00 in
04:06 22.8 °F 10.6 °F 30.23 in North 8.8 mph 12.7 mph 59 % 0.00 in
04:16 22.7 °F 11.3 °F 30.23 in North 7.6 mph 10.4 mph 61 % 0.00 in
04:21 22.5 °F 11.1 °F 30.23 in North 6.0 mph 11.5 mph 61 % 0.00 in
04:27 22.4 °F 11.7 °F 30.24 in NE 10.4 mph 13.8 mph 63 % 0.00 in
04:32 22.3 °F 11.2 °F 30.24 in NNE 5.2 mph 10.4 mph 62 % 0.00 in
04:37 22.2 °F 11.1 °F 30.23 in North 8.1 mph 10.4 mph 62 % 0.00 in
04:42 22.1 °F 11.1 °F 30.23 in NNE 5.9 mph 10.0 mph 62 % 0.00 in
04:47 22.0 °F 11.3 °F 30.24 in North 5.9 mph 8.1 mph 63 % 0.00 in
04:52 21.8 °F 11.1 °F 30.23 in North 8.1 mph 12.7 mph 63 % 0.00 in
04:57 21.7 °F 10.7 °F 30.24 in NNE 9.3 mph 15.0 mph 62 % 0.00 in
05:02 21.7 °F 10.7 °F 30.24 in NNE 5.3 mph 10.4 mph 62 % 0.00 in
05:07 21.7 °F 11.4 °F 30.24 in North 4.9 mph 10.4 mph 64 % 0.00 in
05:12 21.6 °F 11.3 °F 30.24 in NNE 6.5 mph 10.4 mph 64 % 0.00 in
05:18 21.6 °F 11.3 °F 30.24 in NNE 5.2 mph 7.0 mph 64 % 0.00 in
05:23 21.5 °F 11.2 °F 30.24 in NNE 5.7 mph 9.2 mph 64 % 0.00 in
05:28 21.5 °F 11.2 °F 30.24 in NNE 5.6 mph 9.2 mph 64 % 0.00 in
05:33 21.4 °F 11.1 °F 30.25 in NE 4.9 mph 8.1 mph 64 % 0.00 in
05:38 21.4 °F 10.4 °F 30.24 in NE 3.8 mph 5.0 mph 62 % 0.00 in
05:43 21.4 °F 10.7 °F 30.25 in North 5.6 mph 8.1 mph 63 % 0.00 in
05:48 21.4 °F 11.1 °F 30.26 in NNE 3.8 mph 5.8 mph 64 % 0.00 in
05:53 21.4 °F 11.1 °F 30.26 in North 4.2 mph 8.1 mph 64 % 0.00 in
05:58 21.3 °F 11.0 °F 30.26 in North 5.3 mph 7.0 mph 64 % 0.00 in
06:03 21.3 °F 10.7 °F 30.27 in NNW 5.1 mph 6.9 mph 63 % 0.00 in
06:09 21.3 °F 10.7 °F 30.28 in North 3.9 mph 8.0 mph 63 % 0.00 in
06:14 21.3 °F 10.3 °F 30.29 in NNW 3.5 mph 5.8 mph 62 % 0.00 in
06:19 21.2 °F 10.2 °F 30.29 in North 4.5 mph 8.1 mph 62 % 0.00 in
06:24 21.2 °F 10.2 °F 30.29 in NNE 5.9 mph 9.0 mph 62 % 0.00 in
06:29 21.2 °F 10.2 °F 30.29 in North 4.6 mph 7.0 mph 62 % 0.00 in
06:34 21.1 °F 10.1 °F 30.29 in North 0.8 mph 3.5 mph 62 % 0.00 in
06:39 21.1 °F 10.1 °F 30.29 in NNW 6.4 mph 11.5 mph 62 % 0.00 in
06:44 21.1 °F 10.1 °F 30.29 in North 4.4 mph 8.1 mph 62 % 0.00 in
06:49 21.1 °F 10.5 °F 30.29 in NNW 4.7 mph 8.1 mph 63 % 0.00 in
06:55 21.2 °F 10.2 °F 30.29 in North 6.2 mph 10.4 mph 62 % 0.00 in
07:00 21.2 °F 10.2 °F 30.29 in NE 6.0 mph 12.7 mph 62 % 0.00 in
07:05 21.2 °F 10.6 °F 30.29 in North 3.7 mph 8.1 mph 63 % 0.00 in
07:10 21.3 °F 11.0 °F 30.29 in NNW 2.4 mph 5.8 mph 64 % 0.00 in
07:15 21.3 °F 11.0 °F 30.29 in NNW 1.8 mph 5.0 mph 64 % 0.00 in
07:20 21.4 °F 10.7 °F 30.30 in NW 4.1 mph 6.9 mph 63 % 0.00 in
07:25 21.5 °F 10.5 °F 30.30 in NNW 4.5 mph 6.9 mph 62 % 0.00 in
07:30 21.6 °F 10.6 °F 30.30 in NNE 5.1 mph 9.2 mph 62 % 0.00 in
07:35 21.6 °F 10.9 °F 30.29 in North 4.0 mph 8.0 mph 63 % 0.00 in
07:46 21.8 °F 10.8 °F 30.29 in North 4.5 mph 9.2 mph 62 % 0.00 in
07:51 21.9 °F 10.9 °F 30.29 in NNE 5.7 mph 6.9 mph 62 % 0.00 in
07:56 22.0 °F 11.0 °F 30.29 in North 4.4 mph 8.1 mph 62 % 0.00 in
08:01 22.0 °F 11.3 °F 30.28 in North 5.4 mph 7.0 mph 63 % 0.00 in
08:06 22.2 °F 11.5 °F 30.28 in NNE 6.7 mph 11.5 mph 63 % 0.00 in
08:11 22.3 °F 11.6 °F 30.28 in NNW 5.2 mph 8.1 mph 63 % 0.00 in
08:16 22.4 °F 12.1 °F 30.28 in North 3.8 mph 6.9 mph 64 % 0.00 in
08:21 22.5 °F 11.8 °F 30.27 in NNE 6.8 mph 10.4 mph 63 % 0.00 in
08:26 22.7 °F 12.0 °F 30.28 in NNE 6.0 mph 10.4 mph 63 % 0.00 in
08:31 22.9 °F 12.2 °F 30.28 in NNW 5.1 mph 9.2 mph 63 % 0.00 in
08:37 23.0 °F 11.5 °F 30.28 in North 7.9 mph 13.0 mph 61 % 0.00 in
08:42 23.1 °F 12.0 °F 30.28 in North 7.2 mph 10.4 mph 62 % 0.00 in
08:47 23.4 °F 12.3 °F 30.28 in North 6.1 mph 11.0 mph 62 % 0.00 in
08:52 23.6 °F 12.1 °F 30.28 in NE 8.3 mph 11.5 mph 61 % 0.00 in
08:57 23.9 °F 12.4 °F 30.28 in North 7.6 mph 11.5 mph 61 % 0.00 in
09:07 24.3 °F 12.4 °F 30.27 in NNE 7.1 mph 9.2 mph 60 % 0.00 in
09:12 24.6 °F 12.3 °F 30.27 in North 9.5 mph 12.7 mph 59 % 0.00 in
09:17 24.6 °F 12.3 °F 30.27 in NNE 5.8 mph 10.4 mph 59 % 0.00 in
09:28 24.9 °F 12.2 °F 30.27 in North 8.9 mph 11.5 mph 58 % 0.00 in
09:33 25.3 °F 12.2 °F 30.27 in ENE 7.6 mph 11.5 mph 57 % 0.00 in
09:38 25.6 °F 12.9 °F 30.27 in NE 5.4 mph 11.5 mph 58 % 0.00 in
09:43 25.8 °F 12.2 °F 30.27 in NNE 5.9 mph 10.0 mph 56 % 0.00 in
09:48 25.9 °F 12.3 °F 30.27 in NE 8.3 mph 13.8 mph 56 % 0.00 in
09:53 26.1 °F 12.9 °F 30.27 in NNE 5.1 mph 9.2 mph 57 % 0.00 in
09:58 26.2 °F 12.2 °F 30.27 in NE 7.7 mph 11.0 mph 55 % 0.00 in
10:03 26.2 °F 12.6 °F 30.27 in NE 5.3 mph 8.1 mph 56 % 0.00 in
10:08 26.3 °F 12.3 °F 30.28 in NNE 8.4 mph 11.5 mph 55 % 0.00 in
10:13 26.3 °F 11.5 °F 30.27 in NNE 5.0 mph 10.4 mph 53 % 0.00 in
10:19 26.5 °F 11.7 °F 30.27 in NNE 9.8 mph 11.5 mph 53 % 0.00 in
10:24 26.7 °F 12.3 °F 30.27 in NNE 6.3 mph 9.2 mph 54 % 0.00 in
10:29 27.0 °F 11.7 °F 30.27 in North 6.2 mph 11.5 mph 52 % 0.00 in
10:34 27.1 °F 11.8 °F 30.26 in NNE 5.4 mph 8.1 mph 52 % 0.00 in
10:39 27.2 °F 11.9 °F 30.26 in NNW 5.9 mph 9.2 mph 52 % 0.00 in
10:44 27.3 °F 12.0 °F 30.27 in NNE 4.8 mph 9.2 mph 52 % 0.00 in
10:49 27.4 °F 12.1 °F 30.27 in NE 6.0 mph 11.5 mph 52 % 0.00 in
10:54 27.6 °F 11.8 °F 30.26 in NNE 5.7 mph 11.5 mph 51 % 0.00 in
10:59 27.7 °F 11.9 °F 30.25 in North 5.8 mph 11.5 mph 51 % 0.00 in
11:04 27.8 °F 12.4 °F 30.24 in NNE 5.3 mph 7.0 mph 52 % 0.00 in
11:10 27.9 °F 12.5 °F 30.24 in NNW 6.7 mph 10.4 mph 52 % 0.00 in
11:15 27.9 °F 12.1 °F 30.25 in East 5.3 mph 8.1 mph 51 % 0.00 in
11:25 28.1 °F 12.3 °F 30.25 in NNE 3.9 mph 6.9 mph 51 % 0.00 in
11:30 28.2 °F 12.8 °F 30.25 in NE 3.4 mph 4.6 mph 52 % 0.00 in
11:35 28.4 °F 12.6 °F 30.24 in NNW 2.5 mph 4.0 mph 51 % 0.00 in
11:40 28.4 °F 12.6 °F 30.24 in North 2.4 mph 4.0 mph 51 % 0.00 in
11:45 28.3 °F 12.0 °F 30.24 in NNE 4.2 mph 8.1 mph 50 % 0.00 in
11:55 28.4 °F 12.1 °F 30.23 in NNW 4.1 mph 8.1 mph 50 % 0.00 in
12:01 28.3 °F 12.5 °F 30.23 in North 7.0 mph 10.4 mph 51 % 0.00 in
12:06 28.3 °F 12.0 °F 30.22 in NNE 2.2 mph 8.1 mph 50 % 0.00 in
12:11 28.4 °F 12.6 °F 30.22 in NNE 6.7 mph 11.5 mph 51 % 0.00 in
12:16 28.4 °F 12.1 °F 30.21 in North 7.6 mph 11.5 mph 50 % 0.00 in
12:21 28.4 °F 11.6 °F 30.21 in NNW 5.5 mph 8.1 mph 49 % 0.00 in
12:26 28.6 °F 12.3 °F 30.21 in NNE 5.8 mph 9.0 mph 50 % 0.00 in
12:31 28.9 °F 12.1 °F 30.21 in North 2.7 mph 5.8 mph 49 % 0.00 in
12:36 29.2 °F 12.8 °F 30.21 in NNE 2.3 mph 4.6 mph 50 % 0.00 in
12:41 29.5 °F 13.1 °F 30.21 in NNW 3.1 mph 6.9 mph 50 % 0.00 in
12:46 29.6 °F 11.8 °F 30.21 in NNW 2.6 mph 5.8 mph 47 % 0.00 in
12:52 29.6 °F 12.3 °F 30.20 in North 7.2 mph 8.1 mph 48 % 0.00 in
12:57 29.5 °F 11.7 °F 30.20 in NNW 2.4 mph 4.6 mph 47 % 0.00 in
13:02 29.6 °F 12.3 °F 30.20 in North 2.4 mph 5.8 mph 48 % 0.00 in
13:07 29.7 °F 12.4 °F 30.19 in NNE 3.2 mph 8.1 mph 48 % 0.00 in
13:12 29.7 °F 12.4 °F 30.19 in North 1.5 mph 4.6 mph 48 % 0.00 in
13:17 29.8 °F 12.5 °F 30.19 in NNE 3.4 mph 4.6 mph 48 % 0.00 in
13:22 29.7 °F 11.9 °F 30.19 in North 4.9 mph 7.0 mph 47 % 0.00 in
13:27 29.7 °F 12.8 °F 30.19 in North 1.5 mph 4.0 mph 49 % 0.00 in
13:32 29.7 °F 11.9 °F 30.19 in WNW 2.8 mph 4.6 mph 47 % 0.00 in
13:37 29.8 °F 12.5 °F 30.18 in North 2.8 mph 4.6 mph 48 % 0.00 in
13:43 29.8 °F 12.0 °F 30.18 in NNE 3.5 mph 5.8 mph 47 % 0.00 in
13:48 29.9 °F 12.1 °F 30.18 in NNE 2.3 mph 4.0 mph 47 % 0.00 in
13:53 29.8 °F 12.0 °F 30.18 in North 2.2 mph 5.8 mph 47 % 0.00 in
13:58 29.9 °F 12.1 °F 30.18 in NNE 0.4 mph 1.2 mph 47 % 0.00 in
14:03 29.9 °F 12.6 °F 30.18 in NNE 0.5 mph 2.3 mph 48 % 0.00 in
14:05 29.9 °F 13.0 °F 30.17 in NE 3.0 mph 6.0 mph 49 % 0.00 in
14:08 30.0 °F 12.2 °F 30.17 in NE 1.3 mph 3.5 mph 47 % 0.00 in
14:10 30.0 °F 12.7 °F 30.17 in NE 0.1 mph 2.3 mph 48 % 0.00 in
14:11 30.0 °F 13.1 °F 30.17 in NE 0.5 mph 1.2 mph 49 % 0.00 in
14:12 30.0 °F 12.7 °F 30.17 in NNW 1.8 mph 3.5 mph 48 % 0.00 in
14:13 30.0 °F 12.2 °F 30.17 in NNW 0.3 mph 2.3 mph 47 % 0.00 in
14:15 29.9 °F 12.6 °F 30.17 in North 3.0 mph 8.0 mph 48 % 0.00 in
14:16 30.0 °F 13.1 °F 30.17 in NNE 1.2 mph 2.0 mph 49 % 0.00 in
14:21 30.0 °F 12.2 °F 30.17 in NNE 2.1 mph 3.5 mph 47 % 0.00 in
14:25 29.9 °F 13.0 °F 30.17 in North 3.0 mph 6.0 mph 49 % 0.00 in
14:26 29.9 °F 12.6 °F 30.17 in North 4.7 mph 7.0 mph 48 % 0.00 in
14:31 29.9 °F 12.1 °F 30.17 in NW 1.2 mph 3.5 mph 47 % 0.00 in
14:35 29.9 °F 13.0 °F 30.16 in North 2.0 mph 4.0 mph 49 % 0.00 in
14:36 29.9 °F 12.1 °F 30.17 in NNE 2.2 mph 3.5 mph 47 % 0.00 in
14:41 29.9 °F 12.6 °F 30.17 in NNE 0.1 mph 1.2 mph 48 % 0.00 in
14:45 29.9 °F 13.5 °F 30.16 in NNE 6.0 mph 8.0 mph 50 % 0.00 in
14:46 29.9 °F 12.6 °F 30.17 in NW 1.1 mph 2.0 mph 48 % 0.00 in
14:51 29.9 °F 12.6 °F 30.17 in North 3.1 mph 6.9 mph 48 % 0.00 in
14:56 29.9 °F 12.6 °F 30.17 in NE 1.6 mph 3.5 mph 48 % 0.00 in
15:57 29.8 °F 13.4 °F 30.16 in NNE 3.3 mph 4.6 mph 50 % 0.00 in
16:02 29.8 °F 12.9 °F 30.16 in NNW 3.1 mph 5.8 mph 49 % 0.00 in
16:07 29.8 °F 13.4 °F 30.16 in NE 1.9 mph 5.0 mph 50 % 0.00 in
16:12 29.8 °F 13.4 °F 30.16 in NNW 3.4 mph 5.0 mph 50 % 0.00 in
16:18 29.8 °F 13.9 °F 30.16 in NNE 4.1 mph 6.0 mph 51 % 0.00 in
16:23 29.7 °F 13.3 °F 30.16 in NNE 3.0 mph 7.0 mph 50 % 0.00 in
16:28 29.7 °F 13.3 °F 30.16 in NE 6.8 mph 10.4 mph 50 % 0.00 in
16:33 29.6 °F 13.2 °F 30.15 in North 3.6 mph 5.8 mph 50 % 0.00 in
16:38 29.5 °F 13.6 °F 30.15 in NNE 4.8 mph 6.9 mph 51 % 0.00 in
16:43 29.5 °F 13.6 °F 30.15 in North 4.4 mph 5.8 mph 51 % 0.00 in
16:54 29.5 °F 13.1 °F 30.15 in North 1.6 mph 4.6 mph 50 % 0.00 in
16:59 29.5 °F 13.1 °F 30.15 in NE 2.7 mph 5.0 mph 50 % 0.00 in
17:04 29.5 °F 13.6 °F 30.15 in NNE 3.2 mph 4.6 mph 51 % 0.00 in
17:09 29.5 °F 13.1 °F 30.15 in NNE 4.1 mph 9.2 mph 50 % 0.00 in
17:14 29.5 °F 13.6 °F 30.15 in NNE 4.9 mph 6.0 mph 51 % 0.00 in
17:19 29.5 °F 13.1 °F 30.15 in NE 4.3 mph 7.0 mph 50 % 0.00 in
17:24 29.5 °F 13.6 °F 30.15 in NNE 4.5 mph 5.8 mph 51 % 0.00 in
17:29 29.5 °F 14.0 °F 30.15 in North 6.2 mph 9.2 mph 52 % 0.00 in
17:35 29.4 °F 13.9 °F 30.15 in NNE 5.1 mph 8.1 mph 52 % 0.00 in
17:40 29.5 °F 14.0 °F 30.16 in North 3.8 mph 8.1 mph 52 % 0.00 in
17:45 29.5 °F 14.0 °F 30.16 in North 4.9 mph 10.4 mph 52 % 0.00 in
17:50 29.5 °F 13.6 °F 30.16 in NE 2.0 mph 3.5 mph 51 % 0.00 in
17:55 29.5 °F 13.6 °F 30.17 in North 0.7 mph 2.3 mph 51 % 0.00 in
18:00 29.6 °F 13.7 °F 30.17 in NNE 3.4 mph 6.9 mph 51 % 0.00 in
18:05 29.6 °F 13.7 °F 30.17 in NNE 2.7 mph 5.8 mph 51 % 0.00 in
18:10 29.6 °F 13.7 °F 30.16 in NNE 2.7 mph 3.5 mph 51 % 0.00 in
18:16 29.6 °F 13.7 °F 30.16 in NE 3.7 mph 6.0 mph 51 % 0.00 in
18:21 29.6 °F 13.7 °F 30.16 in ENE 4.1 mph 5.8 mph 51 % 0.00 in
18:26 29.6 °F 13.7 °F 30.16 in NNE 4.8 mph 9.2 mph 51 % 0.00 in
18:31 29.7 °F 13.8 °F 30.16 in North 6.0 mph 9.2 mph 51 % 0.00 in
18:36 29.7 °F 13.8 °F 30.16 in NNE 2.8 mph 5.8 mph 51 % 0.00 in
18:41 29.7 °F 14.2 °F 30.16 in ENE 0.3 mph 1.2 mph 52 % 0.00 in
18:46 29.7 °F 14.2 °F 30.16 in NE 2.0 mph 3.5 mph 52 % 0.00 in
18:51 29.7 °F 14.2 °F 30.16 in North 4.1 mph 6.9 mph 52 % 0.00 in
18:56 29.7 °F 13.8 °F 30.16 in NNE 1.2 mph 3.5 mph 51 % 0.00 in
19:01 29.7 °F 14.2 °F 30.16 in NNE 4.1 mph 6.9 mph 52 % 0.00 in
19:12 29.7 °F 14.6 °F 30.16 in NE 6.6 mph 9.2 mph 53 % 0.00 in
19:17 29.7 °F 15.1 °F 30.16 in NNE 3.2 mph 5.8 mph 54 % 0.00 in
19:22 29.7 °F 15.1 °F 30.16 in NNE 6.7 mph 8.1 mph 54 % 0.00 in
19:27 29.8 °F 15.2 °F 30.16 in NE 6.7 mph 9.2 mph 54 % 0.00 in
19:32 29.8 °F 15.2 °F 30.17 in NNW 3.1 mph 8.1 mph 54 % 0.00 in
19:37 29.8 °F 15.2 °F 30.16 in NNE 5.6 mph 9.2 mph 54 % 0.00 in
19:42 29.8 °F 15.2 °F 30.16 in North 5.7 mph 9.0 mph 54 % 0.00 in
19:52 29.9 °F 15.3 °F 30.16 in NNE 4.7 mph 6.9 mph 54 % 0.00 in
19:58 29.8 °F 15.6 °F 30.16 in North 5.5 mph 6.9 mph 55 % 0.00 in
20:03 29.9 °F 15.7 °F 30.15 in NNW 5.7 mph 9.2 mph 55 % 0.00 in
20:08 29.9 °F 15.7 °F 30.15 in North 5.9 mph 9.2 mph 55 % 0.00 in
20:13 29.9 °F 15.7 °F 30.14 in NNE 4.0 mph 6.9 mph 55 % 0.00 in
20:18 29.9 °F 15.7 °F 30.14 in NNE 6.3 mph 11.5 mph 55 % 0.00 in
20:23 29.9 °F 16.1 °F 30.13 in NE 3.8 mph 10.4 mph 56 % 0.00 in
20:28 29.9 °F 16.1 °F 30.14 in NE 3.5 mph 6.0 mph 56 % 0.00 in
20:33 30.0 °F 16.2 °F 30.14 in NNE 4.7 mph 6.9 mph 56 % 0.00 in
20:43 30.1 °F 15.9 °F 30.15 in NNE 7.3 mph 7.3 mph 55 % 0.00 in
20:48 30.2 °F 15.5 °F 30.14 in ENE 2.9 mph 5.8 mph 54 % 0.00 in
20:54 30.3 °F 15.6 °F 30.13 in ENE 5.4 mph 9.2 mph 54 % 0.00 in
20:59 30.3 °F 16.0 °F 30.12 in NNE 4.1 mph 8.1 mph 55 % 0.00 in
21:04 30.4 °F 16.1 °F 30.13 in NNE 4.6 mph 6.9 mph 55 % 0.00 in
21:09 30.5 °F 15.8 °F 30.13 in ENE 3.6 mph 5.8 mph 54 % 0.00 in
21:14 30.5 °F 16.7 °F 30.13 in ENE 5.7 mph 10.4 mph 56 % 0.00 in
21:19 30.6 °F 16.3 °F 30.13 in ENE 6.5 mph 10.4 mph 55 % 0.00 in
21:24 30.8 °F 15.7 °F 30.14 in ENE 7.0 mph 11.5 mph 53 % 0.00 in
21:29 30.8 °F 15.7 °F 30.14 in East 4.5 mph 8.1 mph 53 % 0.00 in
21:39 30.9 °F 15.3 °F 30.13 in East 8.3 mph 11.5 mph 52 % 0.00 in
21:45 31.0 °F 16.3 °F 30.14 in NE 7.6 mph 10.0 mph 54 % 0.00 in
21:50 31.0 °F 15.4 °F 30.13 in ENE 6.8 mph 9.2 mph 52 % 0.00 in
21:55 31.0 °F 15.8 °F 30.13 in NE 9.2 mph 11.5 mph 53 % 0.00 in
22:00 31.0 °F 16.3 °F 30.12 in East 7.2 mph 8.1 mph 54 % 0.00 in
22:05 31.0 °F 16.3 °F 30.12 in East 7.1 mph 11.5 mph 54 % 0.00 in
22:10 31.0 °F 16.3 °F 30.12 in ENE 5.4 mph 8.1 mph 54 % 0.00 in
22:15 31.0 °F 15.8 °F 30.12 in ENE 7.4 mph 10.4 mph 53 % 0.00 in
22:20 31.1 °F 17.2 °F 30.12 in ENE 6.3 mph 8.1 mph 56 % 0.00 in
22:25 31.0 °F 16.3 °F 30.11 in ENE 8.1 mph 11.5 mph 54 % 0.00 in
22:30 31.1 °F 16.8 °F 30.11 in ENE 5.9 mph 11.5 mph 55 % 0.00 in
22:36 31.1 °F 16.8 °F 30.11 in East 6.0 mph 9.2 mph 55 % 0.00 in
22:41 31.1 °F 16.8 °F 30.10 in East 5.8 mph 7.0 mph 55 % 0.00 in
22:46 31.1 °F 17.6 °F 30.10 in East 4.3 mph 8.1 mph 57 % 0.00 in
22:51 31.1 °F 17.6 °F 30.10 in ENE 8.6 mph 12.7 mph 57 % 0.00 in
22:56 31.0 °F 16.7 °F 30.10 in ENE 6.9 mph 8.1 mph 55 % 0.00 in
23:01 31.0 °F 16.7 °F 30.10 in NE 5.5 mph 15.0 mph 55 % 0.00 in
23:06 31.1 °F 16.8 °F 30.10 in East 7.4 mph 11.5 mph 55 % 0.00 in
23:11 31.1 °F 18.0 °F 30.10 in ENE 4.5 mph 6.9 mph 58 % 0.00 in
23:16 31.1 °F 18.0 °F 30.10 in NE 5.3 mph 10.0 mph 58 % 0.00 in
23:21 30.9 °F 17.8 °F 30.10 in East 5.8 mph 8.1 mph 58 % 0.00 in
23:27 30.8 °F 17.7 °F 30.10 in East 7.1 mph 8.1 mph 58 % 0.00 in
23:32 30.7 °F 18.4 °F 30.10 in East 8.0 mph 12.7 mph 60 % 0.00 in
23:37 30.6 °F 18.3 °F 30.09 in ENE 6.5 mph 8.1 mph 60 % 0.00 in
23:42 30.5 °F 19.4 °F 30.09 in East 10.7 mph 13.8 mph 63 % 0.00 in
23:47 30.3 °F 19.9 °F 30.09 in East 6.3 mph 10.4 mph 65 % 0.00 in
23:52 30.1 °F 20.5 °F 30.10 in East 7.7 mph 10.4 mph 67 % 0.00 in
23:57 29.8 °F 20.9 °F 30.10 in ENE 7.9 mph 11.5 mph 69 % 0.00 in
Crab Meadow Weather
Compliments of Weather Underground - 2.75 mb

Script developed by  Jim McMurry - jmcmurry@mwt.net Adapted for the template by  Wim van der Kuil - Leuven-Template.eu

Weather Terms: Lake Effect Snow Warning - Lake effect snowfall of 6 inches or more in 12 hours or less, or 8 inches or more in 24 hours or less.